createdAt,value
2018-02-01T00:02:20.652Z,97.00
2018-02-01T00:04:48.868Z,97.00
2018-02-01T00:07:16.316Z,97.00
2018-02-01T00:09:43.750Z,96.70
2018-02-01T00:12:11.945Z,96.40
2018-02-01T00:14:39.377Z,96.50
2018-02-01T00:17:07.580Z,96.20
2018-02-01T00:19:35.033Z,96.20
2018-02-01T00:22:02.483Z,96.00
2018-02-01T00:24:30.677Z,96.40
2018-02-01T00:26:58.107Z,96.40
2018-02-01T00:29:26.314Z,96.30
2018-02-01T00:31:53.741Z,96.30
2018-02-01T00:34:21.985Z,96.60
2018-02-01T00:36:49.422Z,96.50
2018-02-01T00:39:16.852Z,96.60
2018-02-01T00:41:45.041Z,96.20
2018-02-01T00:44:12.490Z,96.20
2018-02-01T00:46:39.924Z,95.80
2018-02-01T00:49:08.124Z,95.60
2018-02-01T00:51:35.568Z,95.60
2018-02-01T00:54:03.002Z,95.70
2018-02-01T00:56:31.213Z,95.90
2018-02-01T00:58:58.661Z,95.80
2018-02-01T01:01:26.096Z,95.80
2018-02-01T01:03:54.329Z,95.70
2018-02-01T01:06:21.733Z,95.60
2018-02-01T01:08:49.933Z,95.40
2018-02-01T01:11:17.377Z,95.30
2018-02-01T01:13:44.830Z,95.50
2018-02-01T01:16:12.256Z,95.30
2018-02-01T01:18:39.705Z,95.60
2018-02-01T01:21:07.124Z,95.80
2018-02-01T01:23:34.551Z,95.60
2018-02-01T01:26:02.990Z,95.40
2018-02-01T01:28:30.417Z,95.50
2018-02-01T01:30:57.860Z,95.70
2018-02-01T01:33:25.314Z,95.40
2018-02-01T01:35:52.744Z,94.80
2018-02-01T01:38:20.490Z,94.80
2018-02-01T01:40:47.922Z,94.90
2018-02-01T01:43:15.367Z,95.20
2018-02-01T01:48:38.445Z,95.00
2018-02-01T01:51:05.879Z,94.90
2018-02-01T01:53:33.310Z,94.80
2018-02-01T01:56:00.749Z,95.00
2018-02-01T01:58:28.177Z,95.60
2018-02-01T02:00:55.623Z,95.70
2018-02-01T02:03:23.065Z,95.30
2018-02-01T02:05:50.499Z,95.60
2018-02-01T02:08:18.704Z,95.60
2018-02-01T02:10:47.061Z,95.50
2018-02-01T02:13:15.260Z,95.80
2018-02-01T02:15:42.717Z,95.70
2018-02-01T02:18:10.156Z,95.70
2018-02-01T02:20:38.347Z,95.70
2018-02-01T02:23:05.773Z,95.70
2018-02-01T02:25:33.981Z,96.00
2018-02-01T02:28:01.412Z,96.00
2018-02-01T02:30:28.860Z,95.50
2018-02-01T02:32:56.369Z,95.90
2018-02-01T02:35:23.786Z,95.40
2018-02-01T02:37:51.212Z,95.70
2018-02-01T02:40:18.644Z,95.40
2018-02-01T02:42:46.073Z,95.80
2018-02-01T02:45:13.529Z,95.80
2018-02-01T02:47:41.717Z,96.00
2018-02-01T02:50:09.159Z,96.00
2018-02-01T02:52:37.369Z,95.70
2018-02-01T02:55:04.797Z,95.70
2018-02-01T02:57:32.236Z,96.00
2018-02-01T03:00:00.437Z,95.30
2018-02-01T03:02:27.873Z,95.30
2018-02-01T03:04:56.071Z,96.10
2018-02-01T03:07:23.522Z,96.10
2018-02-01T03:09:51.700Z,95.60
2018-02-01T03:12:19.131Z,95.60
2018-02-01T03:14:47.363Z,95.60
2018-02-01T03:17:14.784Z,95.90
2018-02-01T03:19:42.210Z,95.30
2018-02-01T03:22:09.664Z,95.30
2018-02-01T03:24:37.100Z,95.50
2018-02-01T03:27:04.621Z,95.60
2018-02-01T03:29:32.052Z,95.60
2018-02-01T03:32:00.248Z,95.50
2018-02-01T03:34:27.681Z,95.40
2018-02-01T03:36:55.884Z,95.80
2018-02-01T03:39:23.304Z,95.80
2018-02-01T03:41:50.741Z,95.80
2018-02-01T03:44:18.204Z,95.70
2018-02-01T03:46:45.637Z,95.60
2018-02-01T03:49:13.085Z,95.40
2018-02-01T03:51:40.527Z,95.20
2018-02-01T03:54:07.949Z,95.20
2018-02-01T03:56:35.438Z,95.20
2018-02-01T03:59:03.666Z,95.00
2018-02-01T04:01:31.095Z,94.90
2018-02-01T04:03:58.508Z,95.20
2018-02-01T04:06:26.724Z,95.10
2018-02-01T04:08:54.168Z,95.10
2018-02-01T04:11:21.608Z,95.10
2018-02-01T04:13:49.813Z,94.50
2018-02-01T04:16:17.253Z,94.50
2018-02-01T04:18:44.684Z,94.70
2018-02-01T04:21:12.886Z,94.40
2018-02-01T04:23:40.309Z,94.30
2018-02-01T04:26:07.763Z,94.40
2018-02-01T04:28:35.213Z,94.90
2018-02-01T04:31:03.694Z,94.80
2018-02-01T04:33:31.131Z,94.70
2018-02-01T04:35:58.552Z,94.70
2018-02-01T04:38:25.996Z,94.80
2018-02-01T04:40:54.205Z,94.60
2018-02-01T04:43:21.633Z,94.60
2018-02-01T04:45:49.838Z,94.90
2018-02-01T04:48:17.264Z,94.90
2018-02-01T04:50:45.478Z,95.50
2018-02-01T04:53:12.914Z,95.50
2018-02-01T04:55:40.340Z,95.10
2018-02-01T04:58:08.546Z,94.80
2018-02-01T05:00:35.972Z,94.80
2018-02-01T05:03:04.190Z,95.00
2018-02-01T05:05:31.613Z,95.00
2018-02-01T05:07:59.819Z,95.50
2018-02-01T05:10:27.244Z,95.50
2018-02-01T05:12:55.446Z,95.70
2018-02-01T05:15:22.876Z,95.70
2018-02-01T05:17:51.072Z,95.80
2018-02-01T05:20:18.500Z,95.80
2018-02-01T05:22:46.697Z,95.30
2018-02-01T05:25:14.123Z,95.30
2018-02-01T05:27:41.554Z,94.70
2018-02-01T05:30:08.994Z,95.00
2018-02-01T05:32:36.429Z,94.90
2018-02-01T05:35:03.859Z,95.50
2018-02-01T05:37:32.078Z,95.30
2018-02-01T05:39:59.497Z,95.30
2018-02-01T05:42:27.707Z,94.90
2018-02-01T05:44:55.139Z,94.90
2018-02-01T05:47:23.345Z,94.40
2018-02-01T05:49:50.765Z,94.40
2018-02-01T05:52:18.978Z,95.40
2018-02-01T05:54:46.405Z,95.40
2018-02-01T05:57:14.601Z,95.20
2018-02-01T05:59:42.038Z,95.20
2018-02-01T06:02:10.234Z,94.70
2018-02-01T06:04:37.676Z,94.70
2018-02-01T06:07:05.880Z,95.40
2018-02-01T06:09:33.352Z,95.30
2018-02-01T06:12:01.664Z,95.40
2018-02-01T06:14:29.889Z,95.50
2018-02-01T06:16:57.316Z,95.50
2018-02-01T06:19:24.745Z,95.80
2018-02-01T06:21:53.176Z,95.80
2018-02-01T06:24:21.076Z,95.80
2018-02-01T06:26:48.506Z,96.10
2018-02-01T06:29:15.939Z,96.10
2018-02-01T06:31:43.370Z,96.00
2018-02-01T06:36:53.664Z,95.80
2018-02-01T06:39:21.200Z,95.60
2018-02-01T06:41:48.637Z,95.80
2018-02-01T06:44:16.068Z,95.70
2018-02-01T06:46:43.496Z,96.00
2018-02-01T06:49:11.703Z,96.60
2018-02-01T06:51:39.261Z,96.10
2018-02-01T06:54:06.665Z,96.40
2018-02-01T06:56:34.089Z,96.10
2018-02-01T06:59:01.542Z,95.80
2018-02-01T07:01:28.964Z,95.80
2018-02-01T07:03:56.404Z,96.00
2018-02-01T07:06:24.613Z,95.80
2018-02-01T07:08:52.037Z,95.80
2018-02-01T07:11:21.134Z,96.00
2018-02-01T07:13:49.336Z,95.80
2018-02-01T07:16:16.763Z,95.80
2018-02-01T07:18:45.497Z,95.60
2018-02-01T07:21:12.957Z,95.60
2018-02-01T07:23:40.378Z,95.40
2018-02-01T07:26:08.574Z,95.20
2018-02-01T07:28:36.013Z,95.20
2018-02-01T07:31:03.440Z,95.10
2018-02-01T07:33:30.877Z,94.70
2018-02-01T07:35:58.320Z,95.00
2018-02-01T07:38:25.766Z,94.70
2018-02-01T07:40:53.200Z,94.80
2018-02-01T07:43:21.340Z,94.60
2018-02-01T07:48:50.391Z,94.60
2018-02-01T07:51:17.824Z,94.70
2018-02-01T07:53:45.248Z,94.70
2018-02-01T07:56:12.669Z,95.10
2018-02-01T07:58:40.128Z,94.60
2018-02-01T08:01:07.569Z,95.00
2018-02-01T08:03:35.771Z,94.50
2018-02-01T08:06:03.212Z,94.90
2018-02-01T08:08:30.644Z,94.40
2018-02-01T08:10:58.844Z,94.40
2018-02-01T08:13:26.288Z,94.40
2018-02-01T08:15:54.666Z,94.20
2018-02-01T08:18:22.862Z,94.00
2018-02-01T08:20:50.296Z,94.00
2018-02-01T08:23:18.505Z,93.60
2018-02-01T08:25:45.932Z,93.50
2018-02-01T08:28:14.137Z,93.60
2018-02-01T08:30:41.573Z,93.60
2018-02-01T08:33:09.022Z,93.60
2018-02-01T08:35:37.252Z,93.30
2018-02-01T08:38:04.683Z,93.30
2018-02-01T08:40:32.134Z,93.30
2018-02-01T08:42:59.563Z,93.30
2018-02-01T08:45:27.758Z,91.90
2018-02-01T08:47:55.181Z,91.60
2018-02-01T08:50:22.637Z,87.50
2018-02-01T08:52:50.068Z,84.80
2018-02-01T08:55:17.508Z,81.30
2018-02-01T08:57:44.933Z,80.40
2018-02-01T09:00:12.386Z,78.00
2018-02-01T09:02:39.801Z,77.20
2018-02-01T09:05:07.260Z,79.10
2018-02-01T09:07:34.667Z,75.40
2018-02-01T09:10:02.109Z,74.20
2018-02-01T09:12:30.311Z,69.60
2018-02-01T09:14:57.765Z,69.50
2018-02-01T09:17:25.237Z,68.40
2018-02-01T09:19:52.664Z,66.50
2018-02-01T09:22:21.785Z,69.00
2018-02-01T09:24:49.221Z,68.90
2018-02-01T09:27:17.420Z,72.00
2018-02-01T09:29:44.852Z,71.90
2018-02-01T09:32:13.051Z,74.80
2018-02-01T09:34:40.510Z,74.90
2018-02-01T09:37:07.945Z,77.50
2018-02-01T09:39:35.401Z,78.90
2018-02-01T09:42:03.637Z,80.80
2018-02-01T09:44:31.039Z,80.80
2018-02-01T09:46:58.467Z,84.50
2018-02-01T09:49:25.901Z,83.50
2018-02-01T09:51:53.329Z,85.50
2018-02-01T09:54:21.535Z,86.30
2018-02-01T09:56:48.961Z,90.00
2018-02-01T09:59:16.409Z,89.60
2018-02-01T10:01:43.837Z,90.30
2018-02-01T10:04:12.033Z,90.80
2018-02-01T10:06:39.468Z,90.80
2018-02-01T10:09:07.657Z,91.10
2018-02-01T10:11:35.091Z,91.10
2018-02-01T10:14:02.517Z,90.90
2018-02-01T10:16:29.965Z,89.70
2018-02-01T10:18:57.373Z,88.90
2018-02-01T10:21:25.568Z,86.20
2018-02-01T10:23:53.016Z,86.20
2018-02-01T10:26:22.124Z,86.80
2018-02-01T10:28:49.555Z,86.80
2018-02-01T10:31:17.756Z,89.20
2018-02-01T10:33:45.197Z,89.20
2018-02-01T10:36:13.421Z,89.50
2018-02-01T10:38:40.841Z,89.50
2018-02-01T10:41:08.300Z,90.00
2018-02-01T10:43:35.724Z,88.70
2018-02-01T10:46:03.950Z,89.50
2018-02-01T10:48:31.385Z,89.60
2018-02-01T10:50:58.812Z,90.20
2018-02-01T10:53:26.237Z,90.20
2018-02-01T10:55:53.674Z,90.20
2018-02-01T10:58:21.664Z,89.50
2018-02-01T11:00:49.105Z,88.70
2018-02-01T11:03:16.532Z,86.90
2018-02-01T11:05:44.739Z,87.60
2018-02-01T11:08:12.160Z,87.50
2018-02-01T11:10:40.356Z,86.50
2018-02-01T11:13:07.776Z,86.40
2018-02-01T11:15:35.234Z,86.70
2018-02-01T11:18:02.671Z,88.00
2018-02-01T11:20:30.876Z,87.20
2018-02-01T11:22:59.100Z,87.30
2018-02-01T11:25:26.945Z,87.30
2018-02-01T11:27:54.370Z,86.50
2018-02-01T11:30:21.801Z,85.60
2018-02-01T11:32:49.236Z,87.30
2018-02-01T11:35:16.680Z,87.40
2018-02-01T11:37:44.096Z,88.50
2018-02-01T11:40:11.523Z,87.10
2018-02-01T11:42:38.958Z,88.70
2018-02-01T11:45:06.390Z,88.40
2018-02-01T11:47:34.592Z,88.00
2018-02-01T11:50:02.018Z,87.70
2018-02-01T11:52:30.242Z,87.90
2018-02-01T11:54:57.682Z,87.80
2018-02-01T11:57:25.111Z,86.10
2018-02-01T11:59:53.302Z,86.70
2018-02-01T12:02:22.420Z,87.10
2018-02-01T12:04:53.905Z,87.00
2018-02-01T12:07:21.727Z,87.50
2018-02-01T12:09:49.158Z,86.10
2018-02-01T12:12:16.593Z,85.00
2018-02-01T12:14:44.017Z,84.70
2018-02-01T12:17:11.460Z,86.80
2018-02-01T12:19:38.889Z,86.20
2018-02-01T12:22:07.085Z,85.00
2018-02-01T12:24:34.530Z,85.00
2018-02-01T12:27:02.006Z,84.40
2018-02-01T12:29:29.452Z,82.30
2018-02-01T12:31:56.888Z,81.20
2018-02-01T12:34:25.080Z,83.30
2018-02-01T12:36:52.520Z,83.20
2018-02-01T12:39:21.636Z,83.30
2018-02-01T12:41:49.077Z,83.30
2018-02-01T12:44:17.283Z,83.30
2018-02-01T12:46:44.721Z,83.20
2018-02-01T12:49:12.149Z,84.30
2018-02-01T12:51:39.581Z,84.00
2018-02-01T12:54:07.020Z,85.50
2018-02-01T12:56:34.475Z,88.50
2018-02-01T12:59:02.701Z,86.80
2018-02-01T13:01:30.905Z,89.10
2018-02-01T13:03:58.385Z,89.20
2018-02-01T13:06:25.831Z,91.40
2018-02-01T13:08:53.261Z,91.80
2018-02-01T13:11:22.527Z,91.60
2018-02-01T13:13:49.998Z,91.50
2018-02-01T13:16:17.418Z,91.20
2018-02-01T13:18:44.845Z,91.10
2018-02-01T13:21:12.292Z,91.40
2018-02-01T13:23:39.722Z,90.70
2018-02-01T13:26:07.198Z,90.90
2018-02-01T13:28:35.392Z,91.40
2018-02-01T13:31:02.820Z,91.40
2018-02-01T13:33:30.256Z,91.60
2018-02-01T13:35:57.716Z,91.80
2018-02-01T13:38:25.145Z,91.90
2018-02-01T13:40:52.573Z,91.60
2018-02-01T13:43:21.680Z,91.30
2018-02-01T13:45:49.113Z,91.70
2018-02-01T13:48:17.310Z,91.20
2018-02-01T13:50:44.764Z,91.20
2018-02-01T13:53:12.205Z,91.10
2018-02-01T13:55:40.432Z,91.10
2018-02-01T13:58:07.867Z,91.40
2018-02-01T14:00:35.295Z,90.50
2018-02-01T14:03:03.529Z,90.80
2018-02-01T14:05:30.973Z,90.80
2018-02-01T14:07:58.437Z,90.40
2018-02-01T14:10:25.893Z,91.10
2018-02-01T14:12:53.338Z,90.70
2018-02-01T14:15:20.788Z,91.30
2018-02-01T14:17:48.245Z,90.60
2018-02-01T14:20:15.671Z,90.50
2018-02-01T14:22:43.874Z,90.80
2018-02-01T14:25:11.291Z,90.70
2018-02-01T14:27:38.737Z,90.40
2018-02-01T14:30:06.160Z,91.20
2018-02-01T14:32:33.620Z,91.00
2018-02-01T14:35:01.050Z,91.70
2018-02-01T14:37:28.493Z,92.40
2018-02-01T14:39:56.684Z,92.50
2018-02-01T14:42:24.127Z,92.40
2018-02-01T14:44:52.325Z,92.80
2018-02-01T14:47:20.658Z,92.70
2018-02-01T14:49:48.094Z,92.70
2018-02-01T14:52:15.560Z,93.30
2018-02-01T14:54:43.037Z,93.90
2018-02-01T14:57:10.453Z,94.30
2018-02-01T14:59:37.889Z,93.90
2018-02-01T15:02:05.306Z,94.20
2018-02-01T15:04:32.741Z,93.90
2018-02-01T15:07:00.173Z,93.90
2018-02-01T15:09:27.610Z,94.00
2018-02-01T15:11:55.038Z,95.10
2018-02-01T15:14:22.511Z,94.50
2018-02-01T15:16:50.817Z,93.80
2018-02-01T15:19:18.264Z,93.80
2018-02-01T15:21:45.725Z,94.20
2018-02-01T15:24:13.160Z,94.20
2018-02-01T15:26:41.360Z,95.30
2018-02-01T15:29:08.799Z,95.20
2018-02-01T15:31:36.989Z,97.00
2018-02-01T15:34:04.438Z,97.00
2018-02-01T15:36:32.635Z,96.80
2018-02-01T15:39:00.075Z,96.90
2018-02-01T15:41:27.534Z,96.70
2018-02-01T15:43:54.973Z,96.90
2018-02-01T15:46:23.191Z,96.80
2018-02-01T15:48:50.640Z,96.80
2018-02-01T15:51:18.053Z,97.50
2018-02-01T15:53:46.253Z,98.20
2018-02-01T15:56:13.676Z,98.20
2018-02-01T15:58:41.117Z,98.60
2018-02-01T16:01:08.547Z,98.00
2018-02-01T16:03:36.056Z,97.40
2018-02-01T16:06:04.250Z,98.00
2018-02-01T16:08:32.472Z,98.00
2018-02-01T16:10:59.894Z,98.00
2018-02-01T16:13:27.325Z,98.10
2018-02-01T16:15:55.533Z,97.70
2018-02-01T16:18:22.982Z,97.70
2018-02-01T16:20:50.399Z,98.30
2018-02-01T16:23:17.832Z,97.60
2018-02-01T16:25:45.270Z,97.70
2018-02-01T16:28:12.700Z,97.30
2018-02-01T16:30:40.925Z,96.80
2018-02-01T16:33:08.351Z,96.80
2018-02-01T16:35:35.775Z,97.00
2018-02-01T16:38:03.976Z,97.20
2018-02-01T16:40:32.195Z,97.40
2018-02-01T16:42:59.640Z,97.40
2018-02-01T16:45:27.076Z,97.30
2018-02-01T16:47:54.494Z,96.90
2018-02-01T16:50:22.132Z,96.90
2018-02-01T16:52:49.563Z,98.00
2018-02-01T16:55:16.983Z,98.60
2018-02-01T16:57:45.173Z,98.10
2018-02-01T17:00:12.645Z,98.10
2018-02-01T17:02:40.052Z,97.60
2018-02-01T17:05:07.564Z,97.50
2018-02-01T17:07:34.965Z,97.70
2018-02-01T17:10:02.388Z,97.50
2018-02-01T17:29:50.253Z,97.20
2018-02-01T17:32:17.709Z,97.50
2018-02-01T17:34:45.148Z,97.50
2018-02-01T17:37:12.572Z,97.40
2018-02-01T17:39:40.779Z,97.00
2018-02-01T17:42:08.208Z,97.00
2018-02-01T17:44:36.410Z,97.70
2018-02-01T17:47:03.839Z,97.70
2018-02-01T17:49:32.041Z,97.80
2018-02-01T17:51:59.454Z,97.90
2018-02-01T17:54:26.922Z,97.70
2018-02-01T17:56:54.336Z,98.20
2018-02-01T17:59:21.769Z,98.00
2018-02-01T18:01:49.231Z,98.10
2018-02-01T18:04:16.633Z,97.70
2018-02-01T18:06:44.084Z,97.80
2018-02-01T18:09:11.512Z,97.50
2018-02-01T18:11:38.945Z,97.10
2018-02-01T18:14:06.376Z,96.70
2018-02-01T18:16:34.576Z,96.20
2018-02-01T18:19:01.999Z,96.20
2018-02-01T18:21:29.441Z,96.70
2018-02-01T18:23:56.862Z,97.00
2018-02-01T18:26:24.305Z,96.90
2018-02-01T18:28:51.721Z,96.80
2018-02-01T18:31:19.160Z,96.80
2018-02-01T18:33:46.594Z,96.70
2018-02-01T18:36:14.033Z,96.90
2018-02-01T18:38:41.452Z,97.40
2018-02-01T18:41:08.882Z,97.20
2018-02-01T18:43:36.305Z,96.60
2018-02-01T18:46:04.585Z,96.50
2018-02-01T18:48:32.014Z,96.50
2018-02-01T18:51:00.208Z,96.40
2018-02-01T18:53:27.661Z,96.30
2018-02-01T18:55:56.068Z,96.10
2018-02-01T18:58:23.485Z,96.00
2018-02-01T19:00:51.683Z,96.60
2018-02-01T19:03:19.111Z,96.60
2018-02-01T19:05:47.309Z,96.70
2018-02-01T19:08:14.732Z,96.30
2018-02-01T19:10:42.169Z,95.90
2018-02-01T19:13:09.585Z,95.90
2018-02-01T19:15:37.044Z,96.10
2018-02-01T19:18:05.240Z,95.60
2018-02-01T19:20:32.668Z,95.50
2018-02-01T19:23:00.089Z,95.40
2018-02-01T19:25:27.539Z,95.10
2018-02-01T19:27:55.877Z,95.20
2018-02-01T19:30:23.321Z,95.20
2018-02-01T19:32:50.744Z,95.60
2018-02-01T19:35:18.177Z,95.60
2018-02-01T19:37:45.600Z,95.20
2018-02-01T19:40:13.036Z,95.50
2018-02-01T19:42:41.356Z,95.80
2018-02-01T19:45:08.768Z,95.70
2018-02-01T19:47:36.952Z,96.20
2018-02-01T19:50:05.177Z,95.90
2018-02-01T19:52:32.564Z,95.90
2018-02-01T19:54:59.988Z,95.50
2018-02-01T19:57:27.414Z,95.60
2018-02-01T19:59:54.846Z,95.30
2018-02-01T20:02:23.066Z,95.00
2018-02-01T20:04:50.514Z,95.00
2018-02-01T20:07:17.948Z,95.00
2018-02-01T20:09:46.161Z,95.30
2018-02-01T20:12:13.572Z,95.30
2018-02-01T20:14:41.783Z,95.40
2018-02-01T20:17:09.205Z,95.40
2018-02-01T20:19:37.439Z,96.30
2018-02-01T20:22:04.871Z,96.30
2018-02-01T20:24:32.688Z,96.10
2018-02-01T20:27:00.120Z,96.00
2018-02-01T20:29:27.554Z,95.90
2018-02-01T20:31:54.990Z,95.80
2018-02-01T20:34:22.468Z,95.40
2018-02-01T20:36:49.901Z,95.60
2018-02-01T20:39:17.335Z,96.00
2018-02-01T20:41:44.764Z,96.00
2018-02-01T20:44:12.206Z,95.90
2018-02-01T20:46:39.633Z,95.70
2018-02-01T20:49:07.063Z,95.40
2018-02-01T20:51:34.485Z,95.10
2018-02-01T20:54:02.896Z,95.50
2018-02-01T20:56:30.331Z,95.60
2018-02-01T20:58:57.752Z,95.20
2018-02-01T21:01:25.180Z,95.30
2018-02-01T21:03:53.381Z,95.60
2018-02-01T21:06:20.828Z,95.60
2018-02-01T21:08:49.014Z,95.30
2018-02-01T21:11:16.436Z,95.30
2018-02-01T21:13:43.861Z,95.30
2018-02-01T21:16:11.296Z,95.00
2018-02-01T21:18:38.718Z,95.40
2018-02-01T21:21:06.911Z,95.00
2018-02-01T21:23:34.348Z,95.00
2018-02-01T21:26:02.541Z,95.00
2018-02-01T21:28:30.738Z,94.80
2018-02-01T21:30:58.173Z,94.80
2018-02-01T21:33:25.596Z,94.60
2018-02-01T21:35:53.029Z,94.20
2018-02-01T21:38:20.457Z,94.60
2018-02-01T21:40:47.873Z,94.80
2018-02-01T21:43:15.712Z,94.50
2018-02-01T21:45:43.155Z,94.50
2018-02-01T21:48:13.588Z,94.70
2018-02-01T21:50:41.039Z,94.60
2018-02-01T21:53:08.497Z,94.50
2018-02-01T21:55:35.961Z,94.50
2018-02-01T21:58:03.409Z,94.70
2018-02-01T22:00:30.847Z,94.20
2018-02-01T22:02:58.309Z,94.00
2018-02-01T22:05:25.730Z,94.40
2018-02-01T22:07:53.289Z,94.60
2018-02-01T22:10:20.729Z,94.50
2018-02-01T22:12:48.589Z,94.30
2018-02-01T22:15:16.261Z,94.40
2018-02-01T22:17:43.697Z,94.90
2018-02-01T22:20:11.132Z,94.90
2018-02-01T22:22:38.573Z,94.90
2018-02-01T22:25:06.764Z,94.80
2018-02-01T22:27:34.196Z,94.80
2018-02-01T22:30:02.384Z,94.50
2018-02-01T22:32:29.853Z,94.50
2018-02-01T22:34:57.276Z,94.60
2018-02-01T22:37:25.524Z,95.20
2018-02-01T22:39:52.956Z,94.90
2018-02-01T22:42:20.375Z,95.40
2018-02-01T22:44:48.565Z,95.40
2018-02-01T22:47:16.946Z,95.40
2018-02-01T22:49:45.120Z,94.60
2018-02-01T22:52:12.560Z,94.70
2018-02-01T22:54:40.795Z,94.70
2018-02-01T22:57:08.226Z,94.70
2018-02-01T22:59:35.644Z,95.20
2018-02-01T23:02:03.855Z,95.00
2018-02-01T23:04:32.022Z,95.00
2018-02-01T23:06:59.461Z,95.00
2018-02-01T23:09:27.685Z,95.20
2018-02-01T23:11:55.096Z,95.10
2018-02-01T23:14:23.287Z,95.70
2018-02-01T23:16:50.720Z,95.40
2018-02-01T23:19:18.915Z,95.50
2018-02-01T23:21:47.116Z,95.10
2018-02-01T23:24:14.533Z,95.00
2018-02-01T23:26:42.716Z,94.80
2018-02-01T23:29:10.149Z,94.80
2018-02-01T23:31:38.340Z,95.00
2018-02-01T23:34:06.540Z,95.20
2018-02-01T23:36:33.991Z,95.20
2018-02-01T23:39:02.177Z,95.00
2018-02-01T23:41:29.598Z,94.90
2018-02-01T23:43:57.797Z,94.40
2018-02-01T23:46:25.280Z,94.40
2018-02-01T23:48:52.720Z,94.90
2018-02-01T23:51:20.163Z,94.90
2018-02-01T23:53:48.351Z,94.60
2018-02-01T23:56:15.773Z,94.60
2018-02-01T23:58:43.977Z,94.30
